sensor_id;sensor_type;location;lat;lon;timestamp;P1;durP1;ratioP1;P2;durP2;ratioP2
29954;SDS011;16812;51.168;6.840;2022-09-30T00:02:01;14.47;;;9.77;;
29954;SDS011;16812;51.168;6.840;2022-09-30T00:04:28;14.70;;;9.83;;
29954;SDS011;16812;51.168;6.840;2022-09-30T00:06:55;12.80;;;10.23;;
29954;SDS011;16812;51.168;6.840;2022-09-30T00:09:22;25.30;;;11.37;;
29954;SDS011;16812;51.168;6.840;2022-09-30T00:11:51;17.30;;;11.10;;
29954;SDS011;16812;51.168;6.840;2022-09-30T00:14:19;15.77;;;10.93;;
29954;SDS011;16812;51.168;6.840;2022-09-30T00:16:47;15.10;;;8.93;;
29954;SDS011;16812;51.168;6.840;2022-09-30T00:19:14;16.60;;;9.70;;
29954;SDS011;16812;51.168;6.840;2022-09-30T00:21:41;13.13;;;8.77;;
29954;SDS011;16812;51.168;6.840;2022-09-30T00:24:09;22.40;;;10.50;;
29954;SDS011;16812;51.168;6.840;2022-09-30T00:26:36;14.03;;;9.70;;
29954;SDS011;16812;51.168;6.840;2022-09-30T00:29:04;14.87;;;10.20;;
29954;SDS011;16812;51.168;6.840;2022-09-30T00:31:32;16.57;;;10.67;;
29954;SDS011;16812;51.168;6.840;2022-09-30T00:34:00;20.60;;;10.53;;
29954;SDS011;16812;51.168;6.840;2022-09-30T00:36:27;18.43;;;11.67;;
29954;SDS011;16812;51.168;6.840;2022-09-30T00:38:54;15.93;;;11.67;;
29954;SDS011;16812;51.168;6.840;2022-09-30T00:41:21;22.00;;;12.30;;
29954;SDS011;16812;51.168;6.840;2022-09-30T00:43:48;23.50;;;15.00;;
29954;SDS011;16812;51.168;6.840;2022-09-30T00:46:18;17.27;;;10.93;;
29954;SDS011;16812;51.168;6.840;2022-09-30T00:48:48;16.47;;;9.63;;
29954;SDS011;16812;51.168;6.840;2022-09-30T00:51:17;16.27;;;9.73;;
29954;SDS011;16812;51.168;6.840;2022-09-30T00:53:45;20.73;;;10.03;;
29954;SDS011;16812;51.168;6.840;2022-09-30T00:56:15;15.07;;;9.60;;
29954;SDS011;16812;51.168;6.840;2022-09-30T00:58:43;13.30;;;9.47;;
29954;SDS011;16812;51.168;6.840;2022-09-30T01:01:11;18.80;;;10.80;;
29954;SDS011;16812;51.168;6.840;2022-09-30T01:03:42;14.93;;;9.73;;
29954;SDS011;16812;51.168;6.840;2022-09-30T01:06:11;14.10;;;10.43;;
29954;SDS011;16812;51.168;6.840;2022-09-30T01:08:38;15.80;;;10.43;;
29954;SDS011;16812;51.168;6.840;2022-09-30T01:11:05;13.10;;;9.53;;
29954;SDS011;16812;51.168;6.840;2022-09-30T01:13:34;16.97;;;10.17;;
29954;SDS011;16812;51.168;6.840;2022-09-30T01:16:05;17.10;;;11.57;;
29954;SDS011;16812;51.168;6.840;2022-09-30T01:18:38;17.90;;;11.43;;
29954;SDS011;16812;51.168;6.840;2022-09-30T01:21:17;21.20;;;12.43;;
29954;SDS011;16812;51.168;6.840;2022-09-30T01:24:11;16.93;;;11.40;;
29954;SDS011;16812;51.168;6.840;2022-09-30T01:27:04;20.07;;;12.70;;
29954;SDS011;16812;51.168;6.840;2022-09-30T01:32:29;20.73;;;12.20;;
29954;SDS011;16812;51.168;6.840;2022-09-30T01:35:01;22.43;;;12.67;;
29954;SDS011;16812;51.168;6.840;2022-09-30T01:37:35;19.80;;;13.07;;
29954;SDS011;16812;51.168;6.840;2022-09-30T01:40:06;21.83;;;13.00;;
29954;SDS011;16812;51.168;6.840;2022-09-30T01:42:37;24.43;;;14.07;;
29954;SDS011;16812;51.168;6.840;2022-09-30T01:45:07;22.10;;;13.13;;
29954;SDS011;16812;51.168;6.840;2022-09-30T01:47:39;23.17;;;14.30;;
29954;SDS011;16812;51.168;6.840;2022-09-30T01:50:08;23.30;;;11.87;;
29954;SDS011;16812;51.168;6.840;2022-09-30T01:52:40;17.10;;;11.40;;
29954;SDS011;16812;51.168;6.840;2022-09-30T01:55:11;18.83;;;11.83;;
29954;SDS011;16812;51.168;6.840;2022-09-30T01:57:41;17.80;;;11.03;;
29954;SDS011;16812;51.168;6.840;2022-09-30T02:00:10;18.77;;;10.70;;
29954;SDS011;16812;51.168;6.840;2022-09-30T02:02:41;16.73;;;12.07;;
29954;SDS011;16812;51.168;6.840;2022-09-30T02:05:10;16.57;;;12.07;;
29954;SDS011;16812;51.168;6.840;2022-09-30T02:07:40;15.90;;;10.90;;
29954;SDS011;16812;51.168;6.840;2022-09-30T02:10:09;17.03;;;11.23;;
29954;SDS011;16812;51.168;6.840;2022-09-30T02:12:40;18.30;;;12.30;;
29954;SDS011;16812;51.168;6.840;2022-09-30T02:15:09;17.27;;;11.80;;
29954;SDS011;16812;51.168;6.840;2022-09-30T02:17:40;21.33;;;13.17;;
29954;SDS011;16812;51.168;6.840;2022-09-30T02:20:11;20.57;;;11.47;;
29954;SDS011;16812;51.168;6.840;2022-09-30T02:22:39;17.73;;;12.13;;
29954;SDS011;16812;51.168;6.840;2022-09-30T02:25:09;19.63;;;13.00;;
29954;SDS011;16812;51.168;6.840;2022-09-30T02:27:37;19.50;;;12.27;;
29954;SDS011;16812;51.168;6.840;2022-09-30T02:30:06;21.13;;;11.50;;
29954;SDS011;16812;51.168;6.840;2022-09-30T02:32:34;20.03;;;12.13;;
29954;SDS011;16812;51.168;6.840;2022-09-30T02:35:06;14.27;;;11.17;;
29954;SDS011;16812;51.168;6.840;2022-09-30T02:37:35;18.20;;;10.23;;
29954;SDS011;16812;51.168;6.840;2022-09-30T02:40:05;16.97;;;11.57;;
29954;SDS011;16812;51.168;6.840;2022-09-30T02:42:33;13.60;;;9.60;;
29954;SDS011;16812;51.168;6.840;2022-09-30T02:45:01;15.23;;;9.83;;
29954;SDS011;16812;51.168;6.840;2022-09-30T02:47:29;14.47;;;9.43;;
29954;SDS011;16812;51.168;6.840;2022-09-30T02:49:59;13.77;;;9.10;;
29954;SDS011;16812;51.168;6.840;2022-09-30T02:52:31;16.97;;;9.03;;
29954;SDS011;16812;51.168;6.840;2022-09-30T02:55:05;15.30;;;9.40;;
29954;SDS011;16812;51.168;6.840;2022-09-30T02:57:38;12.70;;;8.93;;
29954;SDS011;16812;51.168;6.840;2022-09-30T03:00:10;13.97;;;8.77;;
29954;SDS011;16812;51.168;6.840;2022-09-30T03:02:38;14.90;;;9.13;;
29954;SDS011;16812;51.168;6.840;2022-09-30T03:05:06;11.60;;;8.07;;
29954;SDS011;16812;51.168;6.840;2022-09-30T03:07:34;13.47;;;8.63;;
29954;SDS011;16812;51.168;6.840;2022-09-30T03:10:05;14.80;;;8.83;;
29954;SDS011;16812;51.168;6.840;2022-09-30T03:12:40;15.63;;;8.77;;
29954;SDS011;16812;51.168;6.840;2022-09-30T03:15:21;13.87;;;9.17;;
29954;SDS011;16812;51.168;6.840;2022-09-30T03:17:57;13.10;;;9.60;;
29954;SDS011;16812;51.168;6.840;2022-09-30T03:20:30;13.30;;;8.27;;
29954;SDS011;16812;51.168;6.840;2022-09-30T03:23:08;13.60;;;8.83;;
29954;SDS011;16812;51.168;6.840;2022-09-30T03:25:39;12.23;;;8.33;;
29954;SDS011;16812;51.168;6.840;2022-09-30T03:28:11;15.10;;;9.17;;
29954;SDS011;16812;51.168;6.840;2022-09-30T03:30:41;14.00;;;9.10;;
29954;SDS011;16812;51.168;6.840;2022-09-30T03:33:12;13.00;;;8.20;;
29954;SDS011;16812;51.168;6.840;2022-09-30T03:35:44;11.67;;;8.60;;
29954;SDS011;16812;51.168;6.840;2022-09-30T03:38:18;14.10;;;8.20;;
29954;SDS011;16812;51.168;6.840;2022-09-30T03:40:51;9.83;;;7.77;;
29954;SDS011;16812;51.168;6.840;2022-09-30T03:43:23;9.77;;;7.90;;
29954;SDS011;16812;51.168;6.840;2022-09-30T03:45:53;13.47;;;9.80;;
29954;SDS011;16812;51.168;6.840;2022-09-30T03:48:21;14.93;;;8.80;;
29954;SDS011;16812;51.168;6.840;2022-09-30T03:50:49;8.70;;;7.80;;
29954;SDS011;16812;51.168;6.840;2022-09-30T03:53:19;11.97;;;8.43;;
29954;SDS011;16812;51.168;6.840;2022-09-30T03:55:47;12.40;;;7.67;;
29954;SDS011;16812;51.168;6.840;2022-09-30T03:58:14;13.63;;;9.00;;
29954;SDS011;16812;51.168;6.840;2022-09-30T04:00:43;11.13;;;7.57;;
29954;SDS011;16812;51.168;6.840;2022-09-30T04:03:12;12.80;;;8.37;;
29954;SDS011;16812;51.168;6.840;2022-09-30T04:05:39;10.77;;;7.87;;
29954;SDS011;16812;51.168;6.840;2022-09-30T04:08:06;12.53;;;8.00;;
29954;SDS011;16812;51.168;6.840;2022-09-30T04:10:35;10.90;;;6.90;;
29954;SDS011;16812;51.168;6.840;2022-09-30T04:13:02;12.53;;;9.00;;
29954;SDS011;16812;51.168;6.840;2022-09-30T04:15:29;11.80;;;8.40;;
29954;SDS011;16812;51.168;6.840;2022-09-30T04:17:57;12.80;;;8.20;;
29954;SDS011;16812;51.168;6.840;2022-09-30T04:20:24;13.03;;;7.43;;
29954;SDS011;16812;51.168;6.840;2022-09-30T04:22:51;15.40;;;8.23;;
29954;SDS011;16812;51.168;6.840;2022-09-30T04:25:18;13.73;;;7.83;;
29954;SDS011;16812;51.168;6.840;2022-09-30T04:27:46;13.07;;;8.33;;
29954;SDS011;16812;51.168;6.840;2022-09-30T04:30:14;12.07;;;8.60;;
29954;SDS011;16812;51.168;6.840;2022-09-30T04:32:41;17.20;;;9.50;;
29954;SDS011;16812;51.168;6.840;2022-09-30T04:35:08;13.03;;;8.73;;
29954;SDS011;16812;51.168;6.840;2022-09-30T04:37:35;14.20;;;8.20;;
29954;SDS011;16812;51.168;6.840;2022-09-30T04:40:02;11.63;;;9.07;;
29954;SDS011;16812;51.168;6.840;2022-09-30T04:42:30;10.10;;;7.60;;
29954;SDS011;16812;51.168;6.840;2022-09-30T04:44:58;11.57;;;8.53;;
29954;SDS011;16812;51.168;6.840;2022-09-30T04:47:25;11.23;;;7.90;;
29954;SDS011;16812;51.168;6.840;2022-09-30T04:49:52;12.00;;;8.40;;
29954;SDS011;16812;51.168;6.840;2022-09-30T04:52:19;11.90;;;7.97;;
29954;SDS011;16812;51.168;6.840;2022-09-30T04:54:46;13.27;;;9.43;;
29954;SDS011;16812;51.168;6.840;2022-09-30T04:57:14;14.70;;;8.40;;
29954;SDS011;16812;51.168;6.840;2022-09-30T04:59:41;13.10;;;8.80;;
29954;SDS011;16812;51.168;6.840;2022-09-30T05:02:09;11.83;;;8.13;;
29954;SDS011;16812;51.168;6.840;2022-09-30T05:04:36;13.10;;;8.43;;
29954;SDS011;16812;51.168;6.840;2022-09-30T05:07:03;13.10;;;9.10;;
29954;SDS011;16812;51.168;6.840;2022-09-30T05:09:31;10.10;;;8.13;;
29954;SDS011;16812;51.168;6.840;2022-09-30T05:11:58;13.10;;;8.40;;
29954;SDS011;16812;51.168;6.840;2022-09-30T05:14:25;12.10;;;8.63;;
29954;SDS011;16812;51.168;6.840;2022-09-30T05:16:52;9.53;;;8.20;;
29954;SDS011;16812;51.168;6.840;2022-09-30T05:19:21;12.67;;;8.20;;
29954;SDS011;16812;51.168;6.840;2022-09-30T05:21:48;15.00;;;9.20;;
29954;SDS011;16812;51.168;6.840;2022-09-30T05:24:15;13.60;;;9.00;;
29954;SDS011;16812;51.168;6.840;2022-09-30T05:26:42;15.80;;;8.33;;
29954;SDS011;16812;51.168;6.840;2022-09-30T05:29:10;15.47;;;8.67;;
29954;SDS011;16812;51.168;6.840;2022-09-30T05:31:37;13.53;;;8.70;;
29954;SDS011;16812;51.168;6.840;2022-09-30T05:34:04;13.93;;;9.17;;
29954;SDS011;16812;51.168;6.840;2022-09-30T05:36:32;19.03;;;8.37;;
29954;SDS011;16812;51.168;6.840;2022-09-30T05:39:00;13.93;;;8.53;;
29954;SDS011;16812;51.168;6.840;2022-09-30T05:41:27;11.80;;;8.13;;
29954;SDS011;16812;51.168;6.840;2022-09-30T05:43:54;11.93;;;8.47;;
29954;SDS011;16812;51.168;6.840;2022-09-30T05:46:21;12.33;;;8.50;;
29954;SDS011;16812;51.168;6.840;2022-09-30T05:48:51;11.17;;;7.93;;
29954;SDS011;16812;51.168;6.840;2022-09-30T05:51:18;16.17;;;9.97;;
29954;SDS011;16812;51.168;6.840;2022-09-30T05:53:46;15.97;;;9.93;;
29954;SDS011;16812;51.168;6.840;2022-09-30T05:56:14;13.40;;;9.90;;
29954;SDS011;16812;51.168;6.840;2022-09-30T05:58:41;13.33;;;9.70;;
29954;SDS011;16812;51.168;6.840;2022-09-30T06:01:09;12.50;;;9.20;;
29954;SDS011;16812;51.168;6.840;2022-09-30T06:03:39;17.77;;;10.13;;
29954;SDS011;16812;51.168;6.840;2022-09-30T06:06:07;10.83;;;8.30;;
29954;SDS011;16812;51.168;6.840;2022-09-30T06:08:34;13.67;;;8.40;;
29954;SDS011;16812;51.168;6.840;2022-09-30T06:11:06;10.60;;;7.60;;
29954;SDS011;16812;51.168;6.840;2022-09-30T06:13:33;12.10;;;7.50;;
29954;SDS011;16812;51.168;6.840;2022-09-30T06:16:00;16.37;;;8.00;;
29954;SDS011;16812;51.168;6.840;2022-09-30T06:18:28;10.70;;;7.47;;
29954;SDS011;16812;51.168;6.840;2022-09-30T06:20:55;7.40;;;6.03;;
29954;SDS011;16812;51.168;6.840;2022-09-30T06:23:22;8.87;;;7.00;;
29954;SDS011;16812;51.168;6.840;2022-09-30T06:25:49;8.37;;;6.20;;
29954;SDS011;16812;51.168;6.840;2022-09-30T06:28:18;13.93;;;7.40;;
29954;SDS011;16812;51.168;6.840;2022-09-30T06:30:45;8.83;;;6.07;;
29954;SDS011;16812;51.168;6.840;2022-09-30T06:33:13;8.70;;;6.20;;
29954;SDS011;16812;51.168;6.840;2022-09-30T06:35:40;8.57;;;7.03;;
29954;SDS011;16812;51.168;6.840;2022-09-30T06:38:07;8.77;;;6.80;;
29954;SDS011;16812;51.168;6.840;2022-09-30T06:40:35;9.20;;;6.00;;
29954;SDS011;16812;51.168;6.840;2022-09-30T06:43:02;9.83;;;7.10;;
29954;SDS011;16812;51.168;6.840;2022-09-30T06:45:31;11.13;;;6.67;;
29954;SDS011;16812;51.168;6.840;2022-09-30T06:47:59;12.63;;;8.40;;
29954;SDS011;16812;51.168;6.840;2022-09-30T06:50:27;9.83;;;6.17;;
29954;SDS011;16812;51.168;6.840;2022-09-30T06:52:55;13.67;;;7.20;;
29954;SDS011;16812;51.168;6.840;2022-09-30T06:55:23;17.13;;;7.00;;
29954;SDS011;16812;51.168;6.840;2022-09-30T06:57:50;7.00;;;5.50;;
29954;SDS011;16812;51.168;6.840;2022-09-30T07:00:17;9.73;;;6.00;;
29954;SDS011;16812;51.168;6.840;2022-09-30T07:02:45;8.50;;;6.10;;
29954;SDS011;16812;51.168;6.840;2022-09-30T07:05:13;8.43;;;6.80;;
29954;SDS011;16812;51.168;6.840;2022-09-30T07:07:40;11.93;;;6.60;;
29954;SDS011;16812;51.168;6.840;2022-09-30T07:10:08;9.53;;;6.57;;
29954;SDS011;16812;51.168;6.840;2022-09-30T07:12:35;15.23;;;7.00;;
29954;SDS011;16812;51.168;6.840;2022-09-30T07:15:02;11.80;;;7.00;;
29954;SDS011;16812;51.168;6.840;2022-09-30T07:17:30;8.57;;;6.20;;
29954;SDS011;16812;51.168;6.840;2022-09-30T07:19:58;11.73;;;8.13;;
29954;SDS011;16812;51.168;6.840;2022-09-30T07:22:25;9.43;;;6.87;;
29954;SDS011;16812;51.168;6.840;2022-09-30T07:24:52;11.87;;;7.53;;
29954;SDS011;16812;51.168;6.840;2022-09-30T07:27:20;8.17;;;6.47;;
29954;SDS011;16812;51.168;6.840;2022-09-30T07:29:47;7.93;;;6.50;;
29954;SDS011;16812;51.168;6.840;2022-09-30T07:32:34;9.37;;;6.80;;
29954;SDS011;16812;51.168;6.840;2022-09-30T07:35:03;11.93;;;7.43;;
29954;SDS011;16812;51.168;6.840;2022-09-30T07:37:30;7.90;;;7.10;;
29954;SDS011;16812;51.168;6.840;2022-09-30T07:39:57;10.93;;;7.17;;
29954;SDS011;16812;51.168;6.840;2022-09-30T07:42:24;8.47;;;6.27;;
29954;SDS011;16812;51.168;6.840;2022-09-30T07:44:51;9.90;;;8.00;;
29954;SDS011;16812;51.168;6.840;2022-09-30T07:47:19;11.13;;;6.70;;
29954;SDS011;16812;51.168;6.840;2022-09-30T07:49:46;8.10;;;6.50;;
29954;SDS011;16812;51.168;6.840;2022-09-30T07:52:14;9.50;;;6.50;;
29954;SDS011;16812;51.168;6.840;2022-09-30T07:54:42;10.13;;;6.80;;
29954;SDS011;16812;51.168;6.840;2022-09-30T07:57:15;11.20;;;6.80;;
29954;SDS011;16812;51.168;6.840;2022-09-30T07:59:42;9.30;;;6.70;;
29954;SDS011;16812;51.168;6.840;2022-09-30T08:02:11;10.27;;;7.73;;
29954;SDS011;16812;51.168;6.840;2022-09-30T08:04:39;10.43;;;7.30;;
29954;SDS011;16812;51.168;6.840;2022-09-30T08:07:10;10.63;;;6.77;;
29954;SDS011;16812;51.168;6.840;2022-09-30T08:09:38;10.50;;;6.47;;
29954;SDS011;16812;51.168;6.840;2022-09-30T08:12:05;9.00;;;6.27;;
29954;SDS011;16812;51.168;6.840;2022-09-30T08:14:33;10.20;;;7.07;;
29954;SDS011;16812;51.168;6.840;2022-09-30T08:17:00;9.50;;;6.53;;
29954;SDS011;16812;51.168;6.840;2022-09-30T08:19:27;7.67;;;6.07;;
29954;SDS011;16812;51.168;6.840;2022-09-30T08:21:55;14.30;;;7.57;;
29954;SDS011;16812;51.168;6.840;2022-09-30T08:24:23;7.87;;;6.00;;
29954;SDS011;16812;51.168;6.840;2022-09-30T08:26:53;8.17;;;6.73;;
29954;SDS011;16812;51.168;6.840;2022-09-30T08:29:20;10.47;;;6.37;;
29954;SDS011;16812;51.168;6.840;2022-09-30T08:32:07;9.60;;;6.77;;
29954;SDS011;16812;51.168;6.840;2022-09-30T08:34:35;15.63;;;6.37;;
29954;SDS011;16812;51.168;6.840;2022-09-30T08:37:02;11.30;;;6.77;;
29954;SDS011;16812;51.168;6.840;2022-09-30T08:39:34;10.23;;;6.83;;
29954;SDS011;16812;51.168;6.840;2022-09-30T08:42:12;11.80;;;6.80;;
29954;SDS011;16812;51.168;6.840;2022-09-30T08:45:03;7.27;;;6.53;;
29954;SDS011;16812;51.168;6.840;2022-09-30T08:47:38;7.40;;;6.70;;
29954;SDS011;16812;51.168;6.840;2022-09-30T08:50:12;8.50;;;6.60;;
29954;SDS011;16812;51.168;6.840;2022-09-30T08:52:42;8.43;;;5.67;;
29954;SDS011;16812;51.168;6.840;2022-09-30T08:55:15;14.30;;;8.67;;
29954;SDS011;16812;51.168;6.840;2022-09-30T08:57:46;8.17;;;6.93;;
29954;SDS011;16812;51.168;6.840;2022-09-30T09:00:13;13.00;;;7.73;;
29954;SDS011;16812;51.168;6.840;2022-09-30T09:02:43;9.63;;;6.20;;
29954;SDS011;16812;51.168;6.840;2022-09-30T09:05:12;8.50;;;6.73;;
29954;SDS011;16812;51.168;6.840;2022-09-30T09:07:44;10.03;;;6.07;;
29954;SDS011;16812;51.168;6.840;2022-09-30T09:10:18;13.67;;;6.70;;
29954;SDS011;16812;51.168;6.840;2022-09-30T09:12:51;9.13;;;6.53;;
29954;SDS011;16812;51.168;6.840;2022-09-30T09:15:29;8.43;;;6.77;;
29954;SDS011;16812;51.168;6.840;2022-09-30T09:18:07;8.07;;;6.70;;
29954;SDS011;16812;51.168;6.840;2022-09-30T09:20:53;7.60;;;6.10;;
29954;SDS011;16812;51.168;6.840;2022-09-30T09:23:20;7.57;;;5.57;;
29954;SDS011;16812;51.168;6.840;2022-09-30T09:25:48;8.00;;;6.77;;
29954;SDS011;16812;51.168;6.840;2022-09-30T09:28:20;6.57;;;5.90;;
29954;SDS011;16812;51.168;6.840;2022-09-30T09:30:51;10.53;;;8.57;;
29954;SDS011;16812;51.168;6.840;2022-09-30T09:33:21;10.23;;;6.33;;
29954;SDS011;16812;51.168;6.840;2022-09-30T09:35:50;9.87;;;6.50;;
29954;SDS011;16812;51.168;6.840;2022-09-30T09:38:22;9.20;;;6.27;;
29954;SDS011;16812;51.168;6.840;2022-09-30T09:40:54;9.17;;;6.80;;
29954;SDS011;16812;51.168;6.840;2022-09-30T09:43:27;7.50;;;6.57;;
29954;SDS011;16812;51.168;6.840;2022-09-30T09:45:59;9.40;;;7.20;;
29954;SDS011;16812;51.168;6.840;2022-09-30T09:48:29;9.20;;;7.10;;
29954;SDS011;16812;51.168;6.840;2022-09-30T09:50:58;11.40;;;6.97;;
29954;SDS011;16812;51.168;6.840;2022-09-30T09:53:39;7.90;;;6.80;;
29954;SDS011;16812;51.168;6.840;2022-09-30T09:56:12;11.50;;;7.53;;
29954;SDS011;16812;51.168;6.840;2022-09-30T09:58:41;9.07;;;6.50;;
29954;SDS011;16812;51.168;6.840;2022-09-30T10:01:30;8.40;;;6.83;;
29954;SDS011;16812;51.168;6.840;2022-09-30T10:04:07;10.27;;;7.20;;
29954;SDS011;16812;51.168;6.840;2022-09-30T10:06:42;8.93;;;6.70;;
29954;SDS011;16812;51.168;6.840;2022-09-30T10:09:14;7.07;;;6.23;;
29954;SDS011;16812;51.168;6.840;2022-09-30T10:11:47;14.93;;;7.43;;
29954;SDS011;16812;51.168;6.840;2022-09-30T10:14:15;7.77;;;6.40;;
29954;SDS011;16812;51.168;6.840;2022-09-30T10:16:45;9.20;;;6.60;;
29954;SDS011;16812;51.168;6.840;2022-09-30T10:19:19;10.07;;;7.23;;
29954;SDS011;16812;51.168;6.840;2022-09-30T10:21:46;7.17;;;6.47;;
29954;SDS011;16812;51.168;6.840;2022-09-30T10:24:19;13.67;;;6.63;;
29954;SDS011;16812;51.168;6.840;2022-09-30T10:26:50;9.50;;;6.80;;
29954;SDS011;16812;51.168;6.840;2022-09-30T10:29:24;8.30;;;7.03;;
29954;SDS011;16812;51.168;6.840;2022-09-30T10:31:53;11.50;;;6.70;;
29954;SDS011;16812;51.168;6.840;2022-09-30T10:34:25;7.23;;;6.53;;
29954;SDS011;16812;51.168;6.840;2022-09-30T10:36:53;8.23;;;7.40;;
29954;SDS011;16812;51.168;6.840;2022-09-30T10:39:22;10.30;;;7.23;;
29954;SDS011;16812;51.168;6.840;2022-09-30T10:41:49;10.00;;;6.53;;
29954;SDS011;16812;51.168;6.840;2022-09-30T10:44:19;11.07;;;7.33;;
29954;SDS011;16812;51.168;6.840;2022-09-30T10:46:47;8.33;;;6.93;;
29954;SDS011;16812;51.168;6.840;2022-09-30T10:49:24;10.00;;;7.67;;
29954;SDS011;16812;51.168;6.840;2022-09-30T10:51:52;11.20;;;5.87;;
29954;SDS011;16812;51.168;6.840;2022-09-30T10:57:14;9.47;;;6.03;;
29954;SDS011;16812;51.168;6.840;2022-09-30T10:59:41;10.90;;;8.07;;
29954;SDS011;16812;51.168;6.840;2022-09-30T11:02:17;8.23;;;5.70;;
29954;SDS011;16812;51.168;6.840;2022-09-30T11:04:54;5.60;;;5.00;;
29954;SDS011;16812;51.168;6.840;2022-09-30T11:07:24;8.17;;;5.70;;
29954;SDS011;16812;51.168;6.840;2022-09-30T11:09:54;11.40;;;6.73;;
29954;SDS011;16812;51.168;6.840;2022-09-30T11:12:48;6.33;;;5.70;;
29954;SDS011;16812;51.168;6.840;2022-09-30T11:15:18;7.03;;;5.97;;
29954;SDS011;16812;51.168;6.840;2022-09-30T11:17:49;7.97;;;5.97;;
29954;SDS011;16812;51.168;6.840;2022-09-30T11:20:21;7.77;;;5.63;;
29954;SDS011;16812;51.168;6.840;2022-09-30T11:22:55;11.80;;;6.10;;
29954;SDS011;16812;51.168;6.840;2022-09-30T11:25:24;9.33;;;6.63;;
29954;SDS011;16812;51.168;6.840;2022-09-30T11:28:05;13.80;;;7.87;;
29954;SDS011;16812;51.168;6.840;2022-09-30T11:30:35;11.10;;;7.87;;
29954;SDS011;16812;51.168;6.840;2022-09-30T11:33:08;11.20;;;7.93;;
29954;SDS011;16812;51.168;6.840;2022-09-30T11:35:43;11.83;;;7.43;;
29954;SDS011;16812;51.168;6.840;2022-09-30T11:38:16;8.10;;;5.77;;
29954;SDS011;16812;51.168;6.840;2022-09-30T11:40:49;13.00;;;6.80;;
29954;SDS011;16812;51.168;6.840;2022-09-30T11:43:21;9.70;;;6.67;;
29954;SDS011;16812;51.168;6.840;2022-09-30T11:45:55;9.17;;;5.90;;
29954;SDS011;16812;51.168;6.840;2022-09-30T11:48:32;9.67;;;6.03;;
29954;SDS011;16812;51.168;6.840;2022-09-30T11:51:06;10.37;;;5.63;;
29954;SDS011;16812;51.168;6.840;2022-09-30T11:53:39;5.97;;;5.03;;
29954;SDS011;16812;51.168;6.840;2022-09-30T11:56:11;9.20;;;4.80;;
29954;SDS011;16812;51.168;6.840;2022-09-30T11:58:42;9.93;;;5.43;;
29954;SDS011;16812;51.168;6.840;2022-09-30T12:01:15;6.57;;;5.40;;
29954;SDS011;16812;51.168;6.840;2022-09-30T12:03:45;11.53;;;4.93;;
29954;SDS011;16812;51.168;6.840;2022-09-30T12:06:20;7.60;;;5.30;;
29954;SDS011;16812;51.168;6.840;2022-09-30T12:08:49;7.03;;;5.57;;
29954;SDS011;16812;51.168;6.840;2022-09-30T12:11:19;9.50;;;5.97;;
29954;SDS011;16812;51.168;6.840;2022-09-30T12:13:49;12.10;;;5.83;;
29954;SDS011;16812;51.168;6.840;2022-09-30T12:16:18;7.50;;;5.50;;
29954;SDS011;16812;51.168;6.840;2022-09-30T12:18:48;9.60;;;4.90;;
29954;SDS011;16812;51.168;6.840;2022-09-30T12:21:19;10.60;;;5.50;;
29954;SDS011;16812;51.168;6.840;2022-09-30T12:23:48;9.63;;;4.10;;
29954;SDS011;16812;51.168;6.840;2022-09-30T12:26:16;11.50;;;4.77;;
29954;SDS011;16812;51.168;6.840;2022-09-30T12:28:44;6.00;;;3.80;;
29954;SDS011;16812;51.168;6.840;2022-09-30T12:31:28;5.33;;;3.93;;
29954;SDS011;16812;51.168;6.840;2022-09-30T12:34:02;5.87;;;3.50;;
29954;SDS011;16812;51.168;6.840;2022-09-30T12:36:43;4.93;;;3.63;;
29954;SDS011;16812;51.168;6.840;2022-09-30T12:39:27;5.20;;;3.90;;
29954;SDS011;16812;51.168;6.840;2022-09-30T12:42:01;7.73;;;4.17;;
29954;SDS011;16812;51.168;6.840;2022-09-30T12:44:41;15.57;;;3.90;;
29954;SDS011;16812;51.168;6.840;2022-09-30T12:47:16;4.63;;;3.80;;
29954;SDS011;16812;51.168;6.840;2022-09-30T12:49:46;5.03;;;3.73;;
29954;SDS011;16812;51.168;6.840;2022-09-30T12:52:16;6.67;;;4.03;;
29954;SDS011;16812;51.168;6.840;2022-09-30T12:54:46;6.43;;;4.53;;
29954;SDS011;16812;51.168;6.840;2022-09-30T12:57:16;3.67;;;3.37;;
29954;SDS011;16812;51.168;6.840;2022-09-30T12:59:47;6.43;;;4.37;;
29954;SDS011;16812;51.168;6.840;2022-09-30T13:02:24;11.13;;;4.70;;
29954;SDS011;16812;51.168;6.840;2022-09-30T13:04:53;3.77;;;3.40;;
29954;SDS011;16812;51.168;6.840;2022-09-30T13:07:22;3.83;;;3.03;;
29954;SDS011;16812;51.168;6.840;2022-09-30T13:09:56;6.03;;;3.80;;
29954;SDS011;16812;51.168;6.840;2022-09-30T13:12:24;8.50;;;3.20;;
29954;SDS011;16812;51.168;6.840;2022-09-30T13:17:37;3.73;;;3.00;;
29954;SDS011;16812;51.168;6.840;2022-09-30T13:22:54;6.83;;;3.30;;
29954;SDS011;16812;51.168;6.840;2022-09-30T13:25:21;3.47;;;3.03;;
29954;SDS011;16812;51.168;6.840;2022-09-30T13:27:49;4.10;;;2.80;;
29954;SDS011;16812;51.168;6.840;2022-09-30T13:30:33;6.20;;;3.17;;
29954;SDS011;16812;51.168;6.840;2022-09-30T13:33:05;6.03;;;2.77;;
29954;SDS011;16812;51.168;6.840;2022-09-30T13:35:51;5.40;;;2.97;;
29954;SDS011;16812;51.168;6.840;2022-09-30T13:38:20;4.60;;;2.70;;
29954;SDS011;16812;51.168;6.840;2022-09-30T13:40:48;4.00;;;3.23;;
29954;SDS011;16812;51.168;6.840;2022-09-30T13:43:29;3.23;;;2.53;;
29954;SDS011;16812;51.168;6.840;2022-09-30T13:45:58;6.93;;;2.67;;
29954;SDS011;16812;51.168;6.840;2022-09-30T13:48:31;3.30;;;2.50;;
29954;SDS011;16812;51.168;6.840;2022-09-30T13:50:59;3.70;;;2.47;;
29954;SDS011;16812;51.168;6.840;2022-09-30T13:53:31;4.90;;;2.87;;
29954;SDS011;16812;51.168;6.840;2022-09-30T13:56:00;2.50;;;2.30;;
29954;SDS011;16812;51.168;6.840;2022-09-30T13:58:47;3.47;;;2.23;;
29954;SDS011;16812;51.168;6.840;2022-09-30T14:01:24;4.33;;;2.40;;
29954;SDS011;16812;51.168;6.840;2022-09-30T14:03:58;6.03;;;2.40;;
29954;SDS011;16812;51.168;6.840;2022-09-30T14:06:32;8.33;;;2.63;;
29954;SDS011;16812;51.168;6.840;2022-09-30T14:09:15;5.40;;;2.17;;
29954;SDS011;16812;51.168;6.840;2022-09-30T14:11:58;2.70;;;2.07;;
29954;SDS011;16812;51.168;6.840;2022-09-30T14:14:36;2.10;;;1.97;;
29954;SDS011;16812;51.168;6.840;2022-09-30T14:17:07;2.17;;;1.70;;
29954;SDS011;16812;51.168;6.840;2022-09-30T14:19:45;6.73;;;3.17;;
29954;SDS011;16812;51.168;6.840;2022-09-30T14:22:15;4.57;;;3.63;;
29954;SDS011;16812;51.168;6.840;2022-09-30T14:24:43;3.90;;;3.50;;
29954;SDS011;16812;51.168;6.840;2022-09-30T14:29:55;5.40;;;3.37;;
29954;SDS011;16812;51.168;6.840;2022-09-30T14:32:26;6.97;;;4.27;;
29954;SDS011;16812;51.168;6.840;2022-09-30T14:34:54;6.30;;;4.37;;
29954;SDS011;16812;51.168;6.840;2022-09-30T14:37:23;5.40;;;3.70;;
29954;SDS011;16812;51.168;6.840;2022-09-30T14:39:53;5.80;;;3.50;;
29954;SDS011;16812;51.168;6.840;2022-09-30T14:42:22;5.00;;;2.70;;
29954;SDS011;16812;51.168;6.840;2022-09-30T14:44:51;3.90;;;2.63;;
29954;SDS011;16812;51.168;6.840;2022-09-30T14:47:20;3.17;;;2.30;;
29954;SDS011;16812;51.168;6.840;2022-09-30T14:49:47;3.63;;;3.00;;
29954;SDS011;16812;51.168;6.840;2022-09-30T14:52:34;3.73;;;2.47;;
29954;SDS011;16812;51.168;6.840;2022-09-30T14:55:15;3.40;;;2.40;;
29954;SDS011;16812;51.168;6.840;2022-09-30T14:57:44;5.67;;;2.70;;
29954;SDS011;16812;51.168;6.840;2022-09-30T15:00:18;4.40;;;2.70;;
29954;SDS011;16812;51.168;6.840;2022-09-30T15:02:45;5.63;;;1.93;;
29954;SDS011;16812;51.168;6.840;2022-09-30T15:05:13;4.93;;;3.30;;
29954;SDS011;16812;51.168;6.840;2022-09-30T15:07:41;8.80;;;3.87;;
29954;SDS011;16812;51.168;6.840;2022-09-30T15:10:15;4.40;;;3.37;;
29954;SDS011;16812;51.168;6.840;2022-09-30T15:12:43;4.07;;;3.50;;